Time;durP1;ratioP1;P1;durP2;ratioP2;P2;SDS_P1;SDS_P2;PMS_P1;PMS_P2;Temp;Humidity;BMP_temperature;BMP_pressure;BME280_temperature;BME280_humidity;BME280_pressure;Samples;Min_cycle;Max_cycle;Signal;HPM_P1;HPM_P2
2023/10/07 00:03:09;;;;;;;9.38;4.03;;;;;;;13.86;100.00;102166.97;5130559;28;20041;-36
2023/10/07 00:05:40;;;;;;;8.65;3.55;;;;;;;13.82;100.00;102163.00;5131308;27;20031;-36
2023/10/07 00:08:12;;;;;;;7.22;3.53;;;;;;;13.79;100.00;102152.56;5128683;27;20027;-36
2023/10/07 00:10:39;;;;;;;5.25;3.05;;;;;;;13.80;100.00;102162.38;5117028;28;20355;-37
2023/10/07 00:13:09;;;;;;;9.23;4.00;;;;;;;13.68;100.00;102142.41;5117142;28;20034;-35
2023/10/07 00:15:39;;;;;;;11.00;3.67;;;;;;;13.77;100.00;102146.53;5117174;28;20039;-34
2023/10/07 00:18:23;;;;;;;8.52;3.65;;;;;;;13.71;100.00;102134.63;5116980;28;20382;-35
2023/10/07 00:20:56;;;;;;;8.43;3.67;;;;;;;13.51;100.00;102095.88;5117072;28;20382;-36
2023/10/07 00:23:28;;;;;;;5.80;3.50;;;;;;;13.78;100.00;102134.59;5117322;28;20020;-36
2023/10/07 00:25:57;;;;;;;7.45;3.45;;;;;;;13.80;100.00;102143.34;5117073;28;20028;-36
2023/10/07 00:28:35;;;;;;;6.05;3.53;;;;;;;13.82;100.00;102147.53;5116364;28;20471;-36
2023/10/07 00:31:03;;;;;;;9.57;3.90;;;;;;;13.82;100.00;102152.13;5116305;28;20032;-36
2023/10/07 00:33:30;;;;;;;6.50;3.72;;;;;;;13.78;100.00;102140.03;5117089;28;20023;-36
2023/10/07 00:36:05;;;;;;;6.50;3.78;;;;;;;13.79;100.00;102147.13;5116534;28;20035;-36
2023/10/07 00:38:37;;;;;;;7.47;4.07;;;;;;;13.78;100.00;102151.72;5116486;28;20557;-36
2023/10/07 00:41:03;;;;;;;8.63;4.00;;;;;;;13.81;100.00;102154.03;5116445;28;20027;-36
2023/10/07 00:43:32;;;;;;;9.32;4.20;;;;;;;13.79;100.00;102155.28;5116833;28;20055;-36
2023/10/07 00:48:52;;;;;;;8.30;4.13;;;;;;;13.74;100.00;102147.78;5116300;28;20035;-36
2023/10/07 00:51:24;;;;;;;7.28;4.10;;;;;;;13.80;100.00;102157.78;5116171;28;20030;-36
2023/10/07 00:54:00;;;;;;;9.50;4.90;;;;;;;13.80;100.00;102159.66;5115914;28;20473;-36
2023/10/07 00:56:33;;;;;;;13.23;4.50;;;;;;;13.80;100.00;102162.38;5116857;28;20070;-36
2023/10/07 00:59:07;;;;;;;7.35;4.43;;;;;;;13.78;100.00;102150.91;5117262;28;20035;-36
2023/10/07 01:01:36;;;;;;;9.93;4.47;;;;;;;13.71;100.00;102123.75;5115957;28;20027;-36
2023/10/07 01:04:06;;;;;;;8.45;4.13;;;;;;;13.78;100.00;102135.41;5116198;28;20115;-36
2023/10/07 01:06:32;;;;;;;7.82;4.70;;;;;;;13.69;100.00;102115.00;5116515;28;20059;-36
2023/10/07 01:09:10;;;;;;;9.70;4.82;;;;;;;13.74;100.00;102122.47;5115804;28;20434;-36
2023/10/07 01:11:40;;;;;;;13.38;5.63;;;;;;;13.78;100.00;102118.28;5116365;28;20031;-36
2023/10/07 01:14:11;;;;;;;9.98;5.13;;;;;;;13.77;100.00;102122.06;5115367;28;20024;-36
2023/10/07 01:16:40;;;;;;;11.32;4.93;;;;;;;13.77;100.00;102117.44;5115913;28;20447;-36
2023/10/07 01:21:41;;;;;;;10.32;5.68;;;;;;;13.75;100.00;102118.72;5114711;28;20039;-36
2023/10/07 01:24:06;;;;;;;9.80;5.28;;;;;;;13.72;100.00;102130.88;5115611;28;20049;-37
2023/10/07 01:26:33;;;;;;;13.38;5.60;;;;;;;13.71;100.00;102140.06;5116079;28;20024;-36
2023/10/07 01:29:12;;;;;;;11.63;5.20;;;;;;;13.72;100.00;102141.75;5115949;28;20035;-36
2023/10/07 01:31:59;;;;;;;8.70;5.35;;;;;;;13.77;100.00;102138.38;5116197;28;20111;-37
2023/10/07 01:34:30;;;;;;;9.18;5.03;;;;;;;13.73;100.00;102137.13;5114738;28;20031;-36
2023/10/07 01:37:00;;;;;;;9.82;5.00;;;;;;;13.60;100.00;102121.75;5115548;28;20030;-36
2023/10/07 01:39:40;;;;;;;12.40;5.45;;;;;;;13.76;100.00;102142.97;5115488;28;20455;-36
2023/10/07 01:42:06;;;;;;;9.48;5.28;;;;;;;13.75;100.00;102133.13;5115193;28;20027;-36
2023/10/07 01:44:32;;;;;;;10.80;5.55;;;;;;;13.72;100.00;102119.16;5115160;28;20031;-36
2023/10/07 01:46:58;;;;;;;12.32;5.97;;;;;;;13.71;100.00;102122.91;5114863;28;20395;-36
2023/10/07 01:49:23;;;;;;;11.07;5.80;;;;;;;13.76;100.00;102126.66;5115369;28;20110;-36
2023/10/07 01:51:52;;;;;;;;;;;;;;;13.80;100.00;102108.00;5115470;28;20024;-36
2023/10/07 01:54:21;;;;;;;9.30;6.13;;;;;;;13.76;100.00;102107.63;5115434;28;20262;-35
2023/10/07 01:56:52;;;;;;;12.43;6.00;;;;;;;13.75;100.00;102103.22;5114563;28;20023;-36
2023/10/07 01:59:17;;;;;;;10.45;6.13;;;;;;;13.75;100.00;102099.69;5114882;28;20027;-36
2023/10/07 02:01:50;;;;;;;11.43;6.80;;;;;;;13.77;100.00;102103.84;5115744;28;20031;-36
2023/10/07 02:04:24;;;;;;;10.35;5.93;;;;;;;13.76;100.00;102104.06;5115350;28;20035;-36
2023/10/07 02:06:51;;;;;;;11.55;6.20;;;;;;;13.74;100.00;102100.75;5114751;28;20073;-36
2023/10/07 02:09:25;;;;;;;11.70;6.65;;;;;;;13.82;100.00;102117.63;5114965;28;20110;-36
2023/10/07 02:12:01;;;;;;;10.77;6.35;;;;;;;13.79;100.00;102111.78;5115483;27;20035;-36
2023/10/07 02:14:28;;;;;;;10.68;6.70;;;;;;;13.71;100.00;102093.00;5114627;28;20036;-36
2023/10/07 02:16:59;;;;;;;11.68;6.80;;;;;;;13.79;100.00;102103.63;5114553;28;20020;-36
2023/10/07 02:19:28;;;;;;;9.85;6.30;;;;;;;13.82;100.00;102108.63;5114222;28;20119;-36
2023/10/07 02:22:03;;;;;;;12.15;6.93;;;;;;;13.80;100.00;102111.53;5114508;28;20034;-36
2023/10/07 02:24:30;;;;;;;13.05;6.93;;;;;;;13.86;100.00;102109.84;5114735;28;20050;-36
2023/10/07 02:27:00;;;;;;;11.88;6.65;;;;;;;13.79;100.00;102098.19;5114466;28;20063;-36
2023/10/07 02:29:27;;;;;;;11.32;7.03;;;;;;;13.83;100.00;102107.56;5114394;28;20050;-36
2023/10/07 02:31:54;;;;;;;13.65;7.55;;;;;;;13.84;100.00;102112.78;5114105;28;20041;-36
2023/10/07 02:34:29;;;;;;;11.68;7.05;;;;;;;13.86;100.00;102110.69;5114294;28;20142;-36
2023/10/07 02:37:09;;;;;;;10.75;6.78;;;;;;;13.88;100.00;102119.44;5114225;28;20101;-36
2023/10/07 02:39:45;;;;;;;15.30;8.32;;;;;;;13.90;100.00;102127.38;5113959;28;20083;-36
2023/10/07 02:42:12;;;;;;;11.40;7.50;;;;;;;13.90;100.00;102121.94;5114769;28;20024;-36
2023/10/07 02:44:39;;;;;;;12.75;7.65;;;;;;;13.85;100.00;102114.44;5114123;28;20112;-36
2023/10/07 02:47:11;;;;;;;14.00;8.40;;;;;;;13.93;100.00;102118.78;5114635;28;20367;-36
2023/10/07 02:49:38;;;;;;;12.02;7.90;;;;;;;13.86;100.00;102110.69;5114121;28;20054;-36
2023/10/07 02:52:04;;;;;;;15.65;8.73;;;;;;;13.94;100.00;102114.16;5114095;28;20050;-36
2023/10/07 02:54:33;;;;;;;16.37;9.03;;;;;;;13.89;100.00;102104.78;5113779;28;20062;-36
2023/10/07 02:59:31;;;;;;;13.93;8.48;;;;;;;13.95;100.00;102113.94;5114634;28;20040;-36
2023/10/07 03:02:12;;;;;;;14.38;8.73;;;;;;;13.99;100.00;102109.72;5113982;28;20053;-36
2023/10/07 03:04:43;;;;;;;14.32;9.63;;;;;;;13.98;100.00;102113.50;5113983;28;20023;-36
2023/10/07 03:07:14;;;;;;;16.65;9.38;;;;;;;14.01;100.00;102113.06;5114476;28;20028;-36
2023/10/07 03:10:04;;;;;;;15.23;9.43;;;;;;;13.96;100.00;102104.75;5114186;28;20031;-36
2023/10/07 03:12:30;;;;;;;14.60;8.93;;;;;;;14.04;100.00;102107.16;5113628;28;20107;-36
2023/10/07 03:15:04;;;;;;;;;;;;;;;14.08;100.00;102102.94;5114358;28;20409;-36
2023/10/07 03:17:39;;;;;;;15.98;10.25;;;;;;;14.01;100.00;102106.81;5114297;28;20353;-36
2023/10/07 03:20:28;;;;;;;14.95;10.57;;;;;;;14.06;100.00;102112.41;5114350;28;20019;-37
2023/10/07 03:23:11;;;;;;;14.77;10.02;;;;;;;14.05;100.00;102114.25;5113801;28;20027;-36
2023/10/07 03:28:17;;;;;;;16.58;11.32;;;;;;;14.09;100.00;102111.94;5113816;28;20039;-36
2023/10/07 03:30:51;;;;;;;19.13;12.07;;;;;;;14.07;100.00;102097.72;5114274;28;20024;-36
2023/10/07 03:33:23;;;;;;;17.05;12.30;;;;;;;14.05;100.00;102087.06;5114258;28;20050;-36
2023/10/07 03:38:25;;;;;;;23.08;12.40;;;;;;;14.09;100.00;102098.34;5113690;28;20403;-36
2023/10/07 03:40:55;;;;;;;22.35;12.52;;;;;;;14.16;100.00;102108.09;5113907;28;20024;-36
2023/10/07 03:43:28;;;;;;;19.85;12.43;;;;;;;14.15;100.00;102101.00;5113623;28;20016;-35
2023/10/07 03:45:54;;;;;;;18.52;12.00;;;;;;;14.19;100.00;102093.22;5118343;28;20102;-36
2023/10/07 03:48:30;;;;;;;17.65;12.70;;;;;;;14.21;100.00;102087.56;5117187;28;20562;-36
2023/10/07 03:51:07;;;;;;;18.48;12.98;;;;;;;14.22;100.00;102081.06;5118239;28;20111;-36
2023/10/07 03:53:37;;;;;;;16.30;12.73;;;;;;;14.22;100.00;102089.22;5117975;28;20028;-36
2023/10/07 03:56:06;;;;;;;18.10;13.05;;;;;;;14.24;100.00;102079.75;5117377;28;20028;-36
2023/10/07 03:58:33;;;;;;;18.73;13.57;;;;;;;14.25;100.00;102086.88;5117502;28;20382;-36
2023/10/07 04:01:00;;;;;;;20.92;13.82;;;;;;;14.25;100.00;102069.72;5117598;28;20073;-36
2023/10/07 04:03:25;;;;;;;21.15;13.93;;;;;;;14.26;100.00;102074.94;5117181;28;20055;-36
2023/10/07 04:05:51;;;;;;;19.48;13.43;;;;;;;14.23;100.00;102060.94;5116874;28;20501;-36
2023/10/07 04:08:18;;;;;;;;;;;;;;;14.32;100.00;102065.88;5117492;28;20028;-36
2023/10/07 04:10:45;;;;;;;16.50;13.10;;;;;;;14.31;100.00;102055.22;5117048;28;20336;-36
2023/10/07 04:13:23;;;;;;;16.85;13.18;;;;;;;14.32;100.00;102059.59;5116940;28;20032;-37
2023/10/07 04:15:52;;;;;;;23.65;13.68;;;;;;;14.31;100.00;102068.81;5117500;28;20023;-34
2023/10/07 04:18:23;;;;;;;17.50;13.65;;;;;;;14.27;100.00;102067.59;5117380;28;20478;-34
2023/10/07 04:23:21;;;;;;;15.90;12.68;;;;;;;14.35;100.00;102067.31;5117622;28;20038;-37
2023/10/07 04:25:47;;;;;;;18.23;13.30;;;;;;;14.32;100.00;102073.19;5116696;28;20039;-34
2023/10/07 04:28:13;;;;;;;21.58;13.38;;;;;;;14.33;100.00;102077.59;5116646;28;20061;-35
2023/10/07 04:30:39;;;;;;;;;;;;;;;14.40;100.00;102078.34;5117354;28;20030;-35
2023/10/07 04:33:10;;;;;;;18.05;13.00;;;;;;;14.36;100.00;102085.31;5116307;28;20354;-35
2023/10/07 04:35:37;;;;;;;17.23;12.98;;;;;;;14.37;100.00;102078.81;5117341;28;20019;-35
2023/10/07 04:38:10;;;;;;;15.07;13.38;;;;;;;14.30;100.00;102069.84;5116359;28;20019;-35
2023/10/07 04:41:43;;;;;;;18.02;13.60;;;;;;;14.37;100.00;102084.25;5116974;28;20022;-35
2023/10/07 04:46:06;;;;;;;20.23;13.05;;;;;;;14.28;100.00;102069.25;5116393;28;20039;-35
2023/10/07 04:48:49;;;;;;;22.90;14.65;;;;;;;14.40;100.00;102094.69;5116271;28;20470;-35
2023/10/07 04:51:24;;;;;;;17.50;13.95;;;;;;;14.38;100.00;102083.19;5117057;28;20023;-35
2023/10/07 04:53:57;;;;;;;19.40;14.27;;;;;;;14.36;100.00;102088.84;5116489;28;20059;-35
2023/10/07 04:56:25;;;;;;;20.42;14.60;;;;;;;14.40;100.00;102090.06;5116836;28;20096;-35
2023/10/07 04:58:53;;;;;;;19.90;13.77;;;;;;;14.47;100.00;102097.31;5116530;28;20108;-35
2023/10/07 05:01:31;;;;;;;20.05;13.70;;;;;;;14.48;100.00;102096.28;5116302;28;20038;-35
2023/10/07 05:03:58;;;;;;;16.95;13.32;;;;;;;14.49;100.00;102097.94;5115983;28;20051;-35
2023/10/07 05:06:27;;;;;;;19.95;13.80;;;;;;;14.31;100.00;102066.09;5115928;28;20042;-36
2023/10/07 05:08:53;;;;;;;15.85;13.38;;;;;;;14.51;100.00;102085.78;5116071;28;20081;-36
2023/10/07 05:11:18;;;;;;;19.25;14.07;;;;;;;14.52;100.00;102087.44;5115903;28;20412;-35
2023/10/07 05:13:46;;;;;;;22.90;13.50;;;;;;;14.47;100.00;102073.66;5115719;28;20110;-35
2023/10/07 05:16:15;;;;;;;20.77;14.00;;;;;;;14.53;100.00;102086.38;5116009;28;20427;-35
2023/10/07 05:18:42;;;;;;;20.92;12.73;;;;;;;14.54;100.00;102085.34;5116089;28;20180;-35
2023/10/07 05:21:07;;;;;;;21.83;12.30;;;;;;;14.55;100.00;102092.44;5116207;28;20028;-35
2023/10/07 05:23:37;;;;;;;21.20;12.35;;;;;;;14.56;100.00;102096.81;5115548;28;20470;-35
2023/10/07 05:26:09;;;;;;;15.52;11.45;;;;;;;14.56;100.00;102096.00;5115482;27;20036;-35
2023/10/07 05:28:35;;;;;;;17.55;12.13;;;;;;;14.57;100.00;102094.94;5116224;28;20114;-35
2023/10/07 05:31:03;;;;;;;15.38;12.18;;;;;;;14.57;100.00;102090.31;5115624;28;20046;-35
2023/10/07 05:33:32;;;;;;;19.08;11.77;;;;;;;14.56;100.00;102080.50;5115287;28;20028;-35
2023/10/07 05:36:11;;;;;;;19.67;12.30;;;;;;;14.57;100.00;102073.16;5116104;28;20023;-35
2023/10/07 05:38:40;;;;;;;14.63;11.98;;;;;;;14.56;100.00;102074.22;5115732;28;20019;-35
2023/10/07 05:41:12;;;;;;;21.77;11.38;;;;;;;14.56;100.00;102071.50;5116099;28;20055;-35
2023/10/07 05:43:48;;;;;;;11.73;10.30;;;;;;;14.54;100.00;102073.59;5115215;28;20035;-35
2023/10/07 05:46:17;;;;;;;15.82;10.63;;;;;;;14.54;100.00;102071.75;5115114;28;20482;-35
2023/10/07 05:48:43;;;;;;;15.52;11.20;;;;;;;14.53;100.00;102067.34;5115101;28;20027;-35
2023/10/07 05:51:09;;;;;;;15.68;10.40;;;;;;;14.52;100.00;102087.44;5115291;28;20424;-35
2023/10/07 05:53:38;;;;;;;;;;;;;;;14.58;100.00;102085.69;5115019;28;20102;-36
2023/10/07 05:56:08;;;;;;;14.60;10.52;;;;;;;14.53;100.00;102083.66;5114773;28;19907;-36
2023/10/07 05:58:34;;;;;;;15.30;10.00;;;;;;;14.51;100.00;102080.34;5114758;28;20183;-35
2023/10/07 06:01:01;;;;;;;16.08;10.85;;;;;;;14.53;100.00;102083.66;5114852;28;20028;-35
2023/10/07 06:03:30;;;;;;;17.27;10.48;;;;;;;14.55;100.00;102087.00;5115618;28;20077;-35
2023/10/07 06:05:59;;;;;;;16.08;10.32;;;;;;;14.54;100.00;102089.94;5114181;28;20524;-35
2023/10/07 06:08:26;;;;;;;14.68;9.50;;;;;;;14.54;100.00;102096.25;5114190;28;20027;-35
2023/10/07 06:10:52;;;;;;;15.60;9.75;;;;;;;14.59;100.00;102092.81;5114631;28;20051;-36
2023/10/07 06:13:18;;;;;;;16.27;9.18;;;;;;;14.58;100.00;102091.97;5114913;28;20038;-35
2023/10/07 06:15:45;;;;;;;13.25;9.43;;;;;;;14.61;100.00;102096.97;5114308;28;20031;-35
2023/10/07 06:18:11;;;;;;;15.88;9.43;;;;;;;14.62;100.00;102106.81;5115241;28;20075;-35
2023/10/07 06:20:46;;;;;;;14.95;9.13;;;;;;;14.63;100.00;102099.47;5114821;28;20417;-35
2023/10/07 06:23:13;;;;;;;16.10;9.43;;;;;;;14.51;100.00;102085.78;5114272;28;20383;-35
2023/10/07 06:25:41;;;;;;;16.13;8.65;;;;;;;14.62;100.00;102100.53;5115294;28;20091;-35
2023/10/07 06:28:10;;;;;;;12.52;8.25;;;;;;;14.64;100.00;102095.66;5114374;28;20378;-35
2023/10/07 06:30:38;;;;;;;16.23;9.18;;;;;;;14.64;100.00;102112.88;5114359;28;20028;-35
2023/10/07 06:33:04;;;;;;;13.18;9.13;;;;;;;14.65;100.00;102119.97;5113989;28;20165;-35
2023/10/07 06:35:32;;;;;;;13.13;8.38;;;;;;;14.47;100.00;102092.72;5114939;28;20031;-35
2023/10/07 06:37:57;;;;;;;15.55;8.38;;;;;;;14.70;100.00;102127.47;5114108;28;20470;-35
2023/10/07 06:40:29;;;;;;;11.73;9.05;;;;;;;14.72;100.00;102119.06;5114332;28;20196;-35
2023/10/07 06:42:58;;;;;;;15.23;8.02;;;;;;;14.70;100.00;102108.41;5114644;28;20036;-35
2023/10/07 06:45:29;;;;;;;13.32;7.78;;;;;;;14.74;100.00;102106.88;5114455;28;20042;-35
2023/10/07 06:47:59;;;;;;;11.05;8.07;;;;;;;14.78;100.00;102115.41;5114333;27;20379;-35
2023/10/07 06:50:27;;;;;;;15.13;8.43;;;;;;;14.75;100.00;102102.28;5114347;28;20032;-35
2023/10/07 06:52:55;;;;;;;11.43;7.95;;;;;;;14.81;100.00;102101.34;5114024;28;20030;-35
2023/10/07 06:55:21;;;;;;;12.98;8.38;;;;;;;14.85;100.00;102119.72;5114276;28;20456;-35
2023/10/07 06:57:48;;;;;;;13.95;7.88;;;;;;;14.86;100.00;102137.72;5114016;28;20142;-36
2023/10/07 07:00:23;;;;;;;;;;;;;;;14.93;100.00;102134.91;5114451;28;20043;-36
2023/10/07 07:02:54;;;;;;;13.85;7.28;;;;;;;14.91;100.00;102129.69;5114337;28;19911;-35
2023/10/07 07:05:22;;;;;;;13.82;7.50;;;;;;;14.94;100.00;102136.59;5113752;28;20030;-35
2023/10/07 07:07:52;;;;;;;13.00;7.63;;;;;;;14.93;100.00;102130.31;5114199;28;20225;-35
2023/10/07 07:10:27;;;;;;;13.50;7.47;;;;;;;15.00;100.00;102127.50;5114147;28;20081;-35
2023/10/07 07:12:58;;;;;;;11.63;7.13;;;;;;;15.05;100.00;102119.47;5114135;28;20035;-35
2023/10/07 07:15:26;;;;;;;9.80;7.18;;;;;;;15.10;100.00;102130.50;5114149;28;20088;-35
2023/10/07 07:18:07;;;;;;;14.15;7.57;;;;;;;15.16;100.00;102136.94;5113472;28;20026;-35
2023/10/07 07:20:48;;;;;;;13.55;7.03;;;;;;;15.14;100.00;102117.28;5117588;28;20047;-35
2023/10/07 07:23:16;;;;;;;13.73;7.68;;;;;;;15.24;100.00;102133.06;5118066;28;20072;-35
2023/10/07 07:25:43;;;;;;;11.93;7.10;;;;;;;15.26;100.00;102137.19;5117164;28;20118;-36
2023/10/07 07:28:09;;;;;;;14.70;7.07;;;;;;;15.30;100.00;102143.03;5118652;28;20038;-35
2023/10/07 07:30:35;;;;;;;;;;;;;;;15.37;100.00;102138.31;5118502;28;20024;-35
2023/10/07 07:33:08;;;;;;;12.27;6.47;;;;;;;15.32;100.00;102144.44;5118237;28;20291;-35
2023/10/07 07:35:41;;;;;;;13.88;7.30;;;;;;;15.34;100.00;102138.78;5118171;28;20028;-35
2023/10/07 07:38:31;;;;;;;12.98;6.10;;;;;;;15.38;100.00;102146.28;5117201;28;20020;-34
2023/10/07 07:41:08;;;;;;;11.02;6.88;;;;;;;15.48;100.00;102137.53;5117577;28;20110;-36
2023/10/07 07:43:38;;;;;;;11.57;6.47;;;;;;;15.56;100.00;102139.91;5118337;28;20032;-35
2023/10/07 07:46:18;;;;;;;10.88;5.95;;;;;;;15.69;100.00;102144.38;5117421;28;20038;-35
2023/10/07 07:48:53;;;;;;;11.10;5.97;;;;;;;15.77;100.00;102137.75;5118012;28;20153;-35
2023/10/07 07:51:24;;;;;;;11.50;5.63;;;;;;;15.82;100.00;102146.06;5117751;28;20113;-35
2023/10/07 07:53:50;;;;;;;10.82;5.82;;;;;;;15.83;100.00;102145.00;5117678;28;20594;-36
2023/10/07 07:56:16;;;;;;;9.40;5.65;;;;;;;15.79;100.00;102144.63;5117574;28;20028;-36
2023/10/07 07:58:47;;;;;;;10.68;6.57;;;;;;;15.80;100.00;102156.38;5117474;28;20044;-36
2023/10/07 08:01:18;;;;;;;12.35;6.90;;;;;;;15.82;100.00;102156.97;5118071;28;20080;-36
2023/10/07 08:03:44;;;;;;;12.85;6.32;;;;;;;15.73;100.00;102145.56;5115987;28;20039;-36
2023/10/07 08:06:19;;;;;;;13.30;6.40;;;;;;;15.87;100.00;102166.13;5117668;28;20023;-36
2023/10/07 08:08:46;;;;;;;12.18;6.47;;;;;;;15.90;100.00;102178.44;5117329;28;20036;-36
2023/10/07 08:11:17;;;;;;;11.10;6.18;;;;;;;15.88;100.00;102161.50;5117910;28;20030;-36
2023/10/07 08:13:43;;;;;;;10.40;5.82;;;;;;;15.92;100.00;102162.69;5117086;27;20023;-36
2023/10/07 08:16:15;;;;;;;;;;;;;;;16.08;100.00;102166.63;5117997;28;20028;-40
2023/10/07 08:18:41;;;;;;;8.05;5.55;;;;;;;16.11;100.00;102172.44;5116521;28;20381;-36
2023/10/07 08:21:13;;;;;;;;;;;;;;;16.21;100.00;102172.69;5117285;28;20066;-36
2023/10/07 08:23:44;;;;;;;14.45;6.30;;;;;;;16.16;100.00;102152.63;5116606;28;20363;-36
2023/10/07 08:26:11;;;;;;;13.75;6.35;;;;;;;16.22;100.00;102152.50;5117238;28;20032;-36
2023/10/07 08:28:58;;;;;;;9.52;5.50;;;;;;;16.27;100.00;102160.00;5117199;28;20024;-36
2023/10/07 08:31:37;;;;;;;12.43;5.55;;;;;;;16.33;100.00;102159.03;5115997;28;20036;-36
2023/10/07 08:36:33;;;;;;;13.13;6.03;;;;;;;16.46;100.00;102153.34;5116340;28;20440;-36
2023/10/07 08:38:59;;;;;;;10.18;5.20;;;;;;;16.55;100.00;102158.44;5116405;28;20080;-35
2023/10/07 08:41:26;;;;;;;;;;;;;;;16.63;100.00;102156.16;5117174;28;20036;-36
2023/10/07 08:44:15;;;;;;;11.68;6.35;;;;;;;16.61;100.00;102141.94;5116364;27;19962;-35
2023/10/07 08:46:54;;;;;;;14.38;6.35;;;;;;;16.80;100.00;102163.66;5116602;28;20106;-35
2023/10/07 08:49:26;;;;;;;9.00;5.47;;;;;;;16.85;100.00;102155.56;5115959;28;20077;-35
2023/10/07 08:51:54;;;;;;;12.15;5.53;;;;;;;16.84;100.00;102141.09;5117094;28;20024;-35
2023/10/07 08:54:26;;;;;;;9.88;5.35;;;;;;;16.88;100.00;102144.97;5115868;28;20035;-35
2023/10/07 08:56:55;;;;;;;14.73;5.60;;;;;;;16.78;100.00;102122.09;5116347;28;20023;-35
2023/10/07 08:59:24;;;;;;;9.35;4.88;;;;;;;17.05;100.00;102153.25;5116962;28;20442;-35
2023/10/07 09:01:57;;;;;;;9.60;4.80;;;;;;;17.12;100.00;102153.94;5116901;28;20054;-35
2023/10/07 09:04:24;;;;;;;9.55;5.55;;;;;;;17.18;100.00;102160.34;5116476;27;20027;-35
2023/10/07 09:06:50;;;;;;;9.15;5.85;;;;;;;17.22;100.00;102156.88;5116307;28;20035;-35
2023/10/07 09:09:33;;;;;;;10.77;5.10;;;;;;;17.30;100.00;102160.31;5115899;28;20097;-35
2023/10/07 09:12:08;;;;;;;10.10;5.35;;;;;;;17.36;100.00;102151.13;5115664;28;20024;-35
2023/10/07 09:14:33;;;;;;;8.75;5.07;;;;;;;17.35;100.00;102138.53;5115860;27;20103;-35
2023/10/07 09:16:59;;;;;;;;;;;;;;;17.51;100.00;102137.72;5117043;28;20157;-35
2023/10/07 09:19:27;;;;;;;13.05;5.43;;;;;;;17.43;100.00;102119.00;5115360;28;19912;-35
2023/10/07 09:21:57;;;;;;;8.68;4.85;;;;;;;17.55;100.00;102129.88;5116549;28;20030;-35
2023/10/07 09:24:26;;;;;;;10.77;5.15;;;;;;;17.65;100.00;102139.06;5115292;28;20066;-35
2023/10/07 09:26:59;;;;;;;9.20;5.25;;;;;;;17.69;100.00;102144.88;5115893;28;20023;-35
2023/10/07 09:29:25;;;;;;;11.90;6.07;;;;;;;17.74;100.00;102150.47;5115809;28;20118;-35
2023/10/07 09:31:56;;;;;;;;;;;;;;;17.86;100.00;102148.50;5117050;28;20059;-35
2023/10/07 09:37:12;;;;;;;11.13;5.82;;;;;;;17.93;100.00;102145.59;5115622;28;20074;-35
2023/10/07 09:39:46;;;;;;;10.55;4.95;;;;;;;17.98;100.00;102146.50;5114953;28;20031;-35
2023/10/07 09:42:26;;;;;;;8.50;4.60;;;;;;;18.08;100.00;102156.78;5115315;28;20031;-35
2023/10/07 09:45:02;;;;;;;12.95;4.85;;;;;;;18.20;100.00;102143.84;5115187;28;20023;-35
2023/10/07 09:47:28;;;;;;;11.60;5.47;;;;;;;18.28;100.00;102143.41;5115453;28;20035;-35
2023/10/07 09:49:58;;;;;;;;;;;;;;;18.42;100.00;102138.41;5115231;28;20519;-35
2023/10/07 09:52:29;;;;;;;9.95;4.85;;;;;;;18.40;100.00;102145.25;5114867;28;20364;-35
2023/10/07 09:55:25;;;;;;;8.38;5.07;;;;;;;18.46;100.00;102144.22;5115358;28;20106;-36
2023/10/07 09:58:29;;;;;;;9.82;5.22;;;;;;;18.50;100.00;102132.50;5115129;27;20444;-35
2023/10/07 10:01:37;;;;;;;7.80;4.88;;;;;;;18.58;100.00;102139.44;5103142;28;20044;-36
2023/10/07 10:04:21;;;;;;;8.80;5.45;;;;;;;18.66;100.00;102140.94;5085833;28;20035;-35
2023/10/07 10:07:06;;;;;;;7.15;4.47;;;;;;;18.70;100.00;102134.72;5115639;28;20032;-36
2023/10/07 10:09:45;;;;;;;13.10;5.30;;;;;;;18.81;100.00;102148.56;5114767;28;20116;-36
2023/10/07 10:12:27;;;;;;;9.52;5.18;;;;;;;18.92;100.00;102147.59;5115235;28;20035;-36
2023/10/07 10:17:48;;;;;;;8.80;4.13;;;;;;;19.03;100.00;102171.28;5094772;28;20027;-36
2023/10/07 10:20:18;;;;;;;6.70;4.50;;;;;;;18.98;100.00;102165.75;5115092;28;20023;-36
2023/10/07 10:22:53;;;;;;;8.00;4.30;;;;;;;19.17;100.00;102175.31;5115018;28;20023;-36
2023/10/07 10:25:28;;;;;;;9.43;4.30;;;;;;;19.18;100.00;102170.66;5114933;28;20057;-36
2023/10/07 10:28:02;;;;;;;9.90;4.13;;;;;;;19.21;100.00;102181.09;5114735;28;20036;-35
2023/10/07 10:30:30;;;;;;;8.68;4.03;;;;;;;19.34;100.00;102168.94;5114578;28;20459;-36
2023/10/07 10:33:08;;;;;;;7.90;4.40;;;;;;;19.30;100.00;102155.72;5114208;28;20031;-36
2023/10/07 10:35:37;;;;;;;8.77;4.30;;;;;;;19.41;100.00;102170.38;5114570;28;20028;-35
2023/10/07 10:38:09;;;;;;;9.18;4.75;;;;;;;19.41;100.00;102173.09;5114144;28;20118;-35
2023/10/07 10:40:36;;;;;;;6.32;4.00;;;;;;;19.52;100.00;102172.16;5115074;28;20084;-35
2023/10/07 10:43:01;;;;;;;8.23;4.55;;;;;;;19.36;100.00;102148.38;5114150;28;20072;-36
2023/10/07 10:45:29;;;;;;;7.15;3.97;;;;;;;19.52;100.00;102163.91;5114989;28;20024;-35
2023/10/07 10:47:57;;;;;;;7.88;4.05;;;;;;;19.57;100.00;102168.63;5114032;28;20063;-35
2023/10/07 10:50:24;;;;;;;7.68;3.85;;;;;;;19.63;100.00;102164.88;5114905;28;20084;-36
2023/10/07 10:53:00;;;;;;;9.85;4.78;;;;;;;19.68;100.00;102158.59;5114644;28;20035;-36
2023/10/07 10:55:33;;;;;;;8.85;3.97;;;;;;;19.68;100.00;102153.13;5114584;28;20069;-36
2023/10/07 10:58:00;;;;;;;9.23;4.10;;;;;;;19.77;100.00;102163.34;5114756;28;20060;-36
2023/10/07 11:00:25;;;;;;;6.13;4.20;;;;;;;19.75;100.00;102151.78;5114482;28;20114;-36
2023/10/07 11:02:52;;;;;;;9.68;4.90;;;;;;;19.80;100.00;102153.75;5113986;28;20440;-36
2023/10/07 11:05:20;;;;;;;6.78;3.90;;;;;;;19.88;100.00;102147.81;5114004;28;20118;-35
2023/10/07 11:07:48;;;;;;;8.18;4.15;;;;;;;20.02;100.00;102154.50;5113863;28;20107;-35
2023/10/07 11:10:20;;;;;;;6.93;3.88;;;;;;;20.09;100.00;102148.78;5113831;28;20075;-35
2023/10/07 11:12:51;;;;;;;8.73;3.85;;;;;;;20.18;100.00;102155.44;5113825;28;20067;-35
2023/10/07 11:15:24;;;;;;;9.52;4.80;;;;;;;20.28;100.00;102151.94;5113577;28;20031;-36
2023/10/07 11:18:12;;;;;;;8.13;4.28;;;;;;;20.38;100.00;102127.28;5114574;28;20082;-36
2023/10/07 11:20:41;;;;;;;7.43;3.60;;;;;;;20.57;100.00;102144.19;5113874;28;20032;-36
2023/10/07 11:23:08;;;;;;;13.10;3.90;;;;;;;20.65;100.00;102145.59;5114511;28;20027;-36
2023/10/07 11:25:35;;;;;;;8.18;4.18;;;;;;;20.58;100.00;102134.84;5113785;28;20106;-36
2023/10/07 11:28:09;;;;;;;7.13;3.97;;;;;;;20.58;100.00;102138.41;5113441;28;20038;-35
2023/10/07 11:30:55;;;;;;;7.05;3.95;;;;;;;20.65;100.00;102137.38;5114273;28;20035;-35
2023/10/07 11:33:20;;;;;;;6.97;3.50;;;;;;;20.64;100.00;102139.25;5113392;28;20046;-36
2023/10/07 11:35:59;;;;;;;7.10;3.70;;;;;;;20.62;100.00;102129.63;5113928;28;20028;-35
2023/10/07 11:38:25;;;;;;;7.30;3.72;;;;;;;20.68;100.00;102136.81;5113769;28;20023;-36
2023/10/07 11:40:51;;;;;;;8.07;4.15;;;;;;;20.70;100.00;102132.72;5113706;28;20028;-35
2023/10/07 11:43:17;;;;;;;7.50;3.90;;;;;;;20.73;99.66;102142.31;5113878;28;20056;-35
2023/10/07 11:45:44;;;;;;;6.70;3.65;;;;;;;20.80;100.00;102142.94;5113918;28;20032;-36
2023/10/07 11:48:09;;;;;;;6.50;3.90;;;;;;;20.80;100.00;102130.00;5113212;28;20032;-36
2023/10/07 11:50:35;;;;;;;9.32;3.70;;;;;;;20.85;100.00;102137.44;5113825;28;20085;-35
2023/10/07 11:53:07;;;;;;;6.28;3.60;;;;;;;20.75;99.74;102129.97;5113083;28;20031;-35
2023/10/07 11:55:33;;;;;;;8.77;3.67;;;;;;;20.82;100.00;102136.03;5114054;28;20020;-36
2023/10/07 11:58:02;;;;;;;9.13;4.22;;;;;;;20.80;98.79;102135.50;5113443;28;20375;-37
2023/10/07 12:00:34;;;;;;;7.63;3.35;;;;;;;20.95;100.00;102142.97;5113364;28;20027;-36